createdAt,value
2018-06-11T00:02:20.798Z,9.00
2018-06-11T00:04:49.098Z,9.00
2018-06-11T00:07:17.479Z,8.30
2018-06-11T00:09:45.790Z,8.90
2018-06-11T00:12:14.122Z,8.90
2018-06-11T00:14:42.434Z,8.23
2018-06-11T00:17:10.499Z,8.37
2018-06-11T00:19:38.780Z,7.90
2018-06-11T00:22:07.079Z,7.80
2018-06-11T00:24:35.356Z,7.57
2018-06-11T00:27:03.649Z,7.93
2018-06-11T00:29:31.938Z,7.40
2018-06-11T00:32:00.232Z,7.77
2018-06-11T00:34:28.503Z,7.40
2018-06-11T00:36:56.810Z,7.73
2018-06-11T00:39:25.164Z,7.37
2018-06-11T00:41:53.469Z,7.20
2018-06-11T00:44:21.808Z,7.37
2018-06-11T00:46:50.126Z,7.40
2018-06-11T00:49:18.452Z,8.33
2018-06-11T00:51:46.779Z,8.23
2018-06-11T00:54:15.167Z,7.63
2018-06-11T00:56:43.492Z,7.20
2018-06-11T00:59:11.796Z,7.70
2018-06-11T01:01:40.075Z,7.30
2018-06-11T01:04:08.387Z,7.93
2018-06-11T01:06:36.711Z,8.00
2018-06-11T01:09:07.035Z,7.00
2018-06-11T01:11:35.321Z,7.57
2018-06-11T01:14:03.653Z,7.80
2018-06-11T01:16:31.989Z,7.70
2018-06-11T01:19:00.348Z,6.80
2018-06-11T01:21:28.643Z,6.33
2018-06-11T01:23:56.956Z,6.30
2018-06-11T01:26:25.251Z,7.37
2018-06-11T01:28:53.534Z,6.33
2018-06-11T01:31:21.830Z,7.00
2018-06-11T01:33:50.116Z,6.70
2018-06-11T01:36:18.452Z,7.07
2018-06-11T01:38:46.717Z,6.53
2018-06-11T01:41:15.053Z,6.33
2018-06-11T01:43:43.323Z,5.87
2018-06-11T01:46:11.639Z,5.90
2018-06-11T01:48:39.939Z,6.10
2018-06-11T01:51:08.237Z,5.20
2018-06-11T01:53:36.570Z,5.83
2018-06-11T01:56:04.864Z,6.03
2018-06-11T01:58:33.154Z,6.40
2018-06-11T02:01:01.463Z,6.10
2018-06-11T02:03:29.761Z,6.27
2018-06-11T02:05:58.053Z,5.90
2018-06-11T02:08:26.351Z,6.37
2018-06-11T02:10:54.656Z,5.73
2018-06-11T02:13:22.976Z,5.87
2018-06-11T02:15:51.288Z,6.40
2018-06-11T02:18:19.653Z,6.57
2018-06-11T02:20:47.957Z,5.70
2018-06-11T02:23:16.285Z,5.87
2018-06-11T02:25:44.531Z,5.87
2018-06-11T02:28:12.803Z,5.87
2018-06-11T02:30:41.117Z,6.03
2018-06-11T02:33:09.413Z,5.43
2018-06-11T02:35:37.728Z,5.80
2018-06-11T02:38:06.041Z,5.80
2018-06-11T02:40:34.367Z,6.07
2018-06-11T02:43:02.678Z,5.67
2018-06-11T02:45:31.011Z,5.70
2018-06-11T02:47:59.289Z,5.37
2018-06-11T02:50:27.595Z,5.80
2018-06-11T02:52:55.947Z,6.30
2018-06-11T02:55:24.187Z,5.67
2018-06-11T02:57:52.507Z,5.77
2018-06-11T03:00:20.833Z,5.90
2018-06-11T03:02:49.137Z,5.23
2018-06-11T03:05:17.473Z,5.80
2018-06-11T03:07:45.757Z,5.93
2018-06-11T03:10:14.055Z,4.97
2018-06-11T03:12:42.340Z,5.90
2018-06-11T03:15:10.623Z,5.83
2018-06-11T03:17:38.949Z,5.30
2018-06-11T03:20:07.249Z,5.30
2018-06-11T03:22:35.559Z,5.10
2018-06-11T03:25:04.113Z,4.27
2018-06-11T03:27:32.444Z,5.07
2018-06-11T03:30:00.749Z,5.03
2018-06-11T03:32:29.068Z,4.20
2018-06-11T03:34:57.376Z,4.50
2018-06-11T03:37:25.675Z,4.57
2018-06-11T03:39:54.844Z,4.37
2018-06-11T03:42:23.118Z,4.10
2018-06-11T03:44:51.452Z,4.60
2018-06-11T03:47:26.398Z,4.73
2018-06-11T03:49:54.674Z,4.70
2018-06-11T03:52:23.007Z,4.73
2018-06-11T03:54:51.060Z,4.67
2018-06-11T03:57:19.384Z,4.20
2018-06-11T03:59:47.716Z,4.23
2018-06-11T04:02:15.983Z,4.13
2018-06-11T04:04:44.295Z,4.37
2018-06-11T04:07:12.600Z,4.10
2018-06-11T04:09:40.940Z,4.17
2018-06-11T04:12:09.247Z,4.37
2018-06-11T04:14:37.530Z,4.20
2018-06-11T04:17:05.817Z,4.47
2018-06-11T04:19:34.133Z,4.37
2018-06-11T04:22:02.449Z,4.17
2018-06-11T04:24:30.788Z,4.47
2018-06-11T04:26:59.088Z,4.67
2018-06-11T04:29:27.288Z,4.23
2018-06-11T04:31:55.609Z,4.57
2018-06-11T04:34:24.596Z,4.63
2018-06-11T04:36:56.310Z,4.43
2018-06-11T04:39:24.610Z,4.60
2018-06-11T04:41:53.210Z,4.00
2018-06-11T04:44:21.548Z,4.50
2018-06-11T04:46:49.868Z,4.07
2018-06-11T04:49:18.224Z,3.93
2018-06-11T04:51:46.578Z,4.73
2018-06-11T04:54:14.888Z,4.90
2018-06-11T04:56:43.189Z,4.40
2018-06-11T04:59:11.508Z,4.50
2018-06-11T05:01:39.802Z,4.00
2018-06-11T05:04:08.102Z,4.70
2018-06-11T05:06:36.394Z,4.13
2018-06-11T05:09:06.568Z,4.20
2018-06-11T05:11:34.942Z,3.90
2018-06-11T05:14:03.289Z,4.37
2018-06-11T05:16:31.382Z,4.43
2018-06-11T05:18:59.714Z,4.17
2018-06-11T05:21:28.035Z,3.87
2018-06-11T05:23:56.320Z,4.23
2018-06-11T05:26:24.632Z,4.13
2018-06-11T05:28:52.992Z,4.20
2018-06-11T05:31:21.320Z,3.97
2018-06-11T05:33:49.622Z,4.37
2018-06-11T05:36:17.938Z,3.60
2018-06-11T05:38:46.278Z,4.27
2018-06-11T05:41:14.763Z,3.27
2018-06-11T05:43:43.070Z,3.80
2018-06-11T05:46:11.366Z,3.60
2018-06-11T05:48:39.690Z,3.60
2018-06-11T05:51:08.023Z,3.50
2018-06-11T05:53:36.090Z,3.50
2018-06-11T05:56:04.418Z,3.60
2018-06-11T05:58:32.727Z,3.80
2018-06-11T06:01:01.077Z,4.03
2018-06-11T06:03:29.387Z,3.23
2018-06-11T06:05:57.724Z,4.07
2018-06-11T06:08:26.029Z,3.10
2018-06-11T06:10:54.328Z,3.67
2018-06-11T06:13:22.622Z,3.83
2018-06-11T06:15:50.930Z,3.60
2018-06-11T06:18:19.234Z,3.67
2018-06-11T06:20:47.552Z,3.93
2018-06-11T06:23:15.865Z,3.93
2018-06-11T06:25:44.166Z,3.67
2018-06-11T06:28:12.527Z,3.23
2018-06-11T06:30:40.816Z,3.33
2018-06-11T06:33:09.166Z,3.70
2018-06-11T06:35:37.461Z,3.53
2018-06-11T06:38:05.761Z,3.83
2018-06-11T06:40:34.153Z,3.57
2018-06-11T06:43:02.442Z,3.63
2018-06-11T06:45:30.745Z,4.13
2018-06-11T06:47:59.150Z,3.73
2018-06-11T06:50:27.499Z,4.00
2018-06-11T06:52:55.870Z,3.77
2018-06-11T06:55:24.166Z,4.30
2018-06-11T06:57:52.448Z,4.20
2018-06-11T07:00:20.777Z,3.57
2018-06-11T07:02:49.114Z,3.90
2018-06-11T07:05:17.529Z,3.77
2018-06-11T07:07:45.828Z,4.20
2018-06-11T07:10:14.128Z,4.27
2018-06-11T07:12:42.447Z,3.80
2018-06-11T07:15:10.777Z,3.87
2018-06-11T07:17:39.099Z,3.87
2018-06-11T07:20:07.567Z,4.70
2018-06-11T07:22:35.869Z,3.37
2018-06-11T07:25:04.171Z,4.27
2018-06-11T07:27:32.543Z,4.10
2018-06-11T07:30:00.603Z,4.07
2018-06-11T07:32:28.871Z,3.93
2018-06-11T07:34:57.230Z,3.93
2018-06-11T07:37:25.517Z,4.50
2018-06-11T07:39:53.865Z,4.10
2018-06-11T07:42:22.430Z,4.53
2018-06-11T07:44:50.735Z,3.83
2018-06-11T07:47:19.096Z,3.93
2018-06-11T07:49:47.423Z,4.00
2018-06-11T07:52:15.720Z,4.33
2018-06-11T07:54:44.009Z,3.67
2018-06-11T07:57:12.323Z,4.00
2018-06-11T07:59:40.646Z,3.63
2018-06-11T08:02:08.959Z,4.33
2018-06-11T08:04:37.247Z,3.57
2018-06-11T08:07:05.568Z,3.60
2018-06-11T08:09:33.885Z,3.60
2018-06-11T08:12:02.204Z,3.83
2018-06-11T08:14:30.539Z,3.60
2018-06-11T08:16:58.846Z,4.13
2018-06-11T08:19:27.161Z,4.87
2018-06-11T08:21:55.515Z,3.70
2018-06-11T08:24:23.847Z,3.90
2018-06-11T08:26:52.279Z,3.60
2018-06-11T08:29:20.644Z,3.63
2018-06-11T08:31:55.514Z,4.13
2018-06-11T08:34:23.864Z,3.73
2018-06-11T08:36:52.174Z,3.17
2018-06-11T08:39:20.488Z,3.53
2018-06-11T08:41:48.791Z,3.03
2018-06-11T08:44:18.009Z,3.07
2018-06-11T08:46:46.321Z,3.47
2018-06-11T08:49:14.611Z,3.60
2018-06-11T08:51:43.089Z,3.77
2018-06-11T08:54:11.458Z,3.07
2018-06-11T08:56:39.787Z,3.73
2018-06-11T08:59:08.086Z,3.50
2018-06-11T09:01:36.456Z,3.63
2018-06-11T09:04:04.734Z,3.53
2018-06-11T09:06:33.056Z,4.20
2018-06-11T09:09:01.367Z,3.73
2018-06-11T09:11:29.688Z,3.40
2018-06-11T09:13:58.010Z,3.20
2018-06-11T09:16:26.310Z,3.90
2018-06-11T09:18:54.693Z,3.40
2018-06-11T09:21:23.000Z,3.40
2018-06-11T09:23:51.319Z,3.70
2018-06-11T09:26:19.682Z,3.77
2018-06-11T09:28:47.995Z,3.30
2018-06-11T09:31:16.351Z,3.13
2018-06-11T09:33:44.713Z,3.63
2018-06-11T09:36:13.058Z,3.80
2018-06-11T09:38:41.417Z,3.70
2018-06-11T09:41:09.647Z,3.53
2018-06-11T09:43:37.921Z,3.63
2018-06-11T09:46:06.283Z,3.70
2018-06-11T09:48:34.627Z,4.03
2018-06-11T09:51:02.956Z,4.07
2018-06-11T09:53:31.260Z,3.63
2018-06-11T09:55:59.571Z,3.80
2018-06-11T09:58:27.943Z,4.10
2018-06-11T10:00:56.273Z,4.43
2018-06-11T10:03:24.596Z,3.77
2018-06-11T10:05:52.898Z,3.50
2018-06-11T10:08:21.211Z,3.63
2018-06-11T10:10:49.253Z,3.73
2018-06-11T10:13:17.647Z,3.77
2018-06-11T10:15:45.967Z,3.70
2018-06-11T10:18:14.273Z,3.53
2018-06-11T10:20:42.589Z,3.63
2018-06-11T10:23:10.915Z,3.80
2018-06-11T10:25:39.247Z,3.53
2018-06-11T10:28:07.310Z,3.27
2018-06-11T10:30:35.625Z,3.67
2018-06-11T10:33:03.953Z,3.90
2018-06-11T10:35:32.287Z,3.37
2018-06-11T10:38:00.594Z,3.53
2018-06-11T10:40:28.915Z,3.80
2018-06-11T10:42:57.211Z,3.30
2018-06-11T10:45:25.538Z,3.40
2018-06-11T10:47:53.814Z,3.50
2018-06-11T10:50:22.102Z,3.43
2018-06-11T10:52:50.402Z,3.90
2018-06-11T10:55:18.749Z,3.87
2018-06-11T10:57:47.048Z,3.93
2018-06-11T11:00:15.412Z,3.30
2018-06-11T11:02:43.738Z,3.43
2018-06-11T11:05:12.060Z,3.60
2018-06-11T11:07:40.356Z,3.70
2018-06-11T11:10:08.412Z,3.90
2018-06-11T11:12:36.800Z,3.73
2018-06-11T11:15:05.089Z,3.50
2018-06-11T11:17:33.365Z,3.60
2018-06-11T11:20:01.779Z,4.10
2018-06-11T11:22:30.081Z,3.70
2018-06-11T11:24:58.428Z,4.57
2018-06-11T11:27:26.710Z,3.57
2018-06-11T11:29:55.053Z,3.37
2018-06-11T11:32:23.317Z,3.60
2018-06-11T11:34:51.590Z,4.10
2018-06-11T11:37:19.968Z,3.63
2018-06-11T11:39:48.317Z,3.57
2018-06-11T11:42:16.623Z,4.00
2018-06-11T11:44:44.946Z,3.60
2018-06-11T11:47:13.239Z,3.97
2018-06-11T11:49:41.539Z,3.67
2018-06-11T11:52:09.842Z,3.50
2018-06-11T11:54:38.154Z,3.70
2018-06-11T11:57:06.454Z,3.60
2018-06-11T11:59:34.777Z,3.33
2018-06-11T12:02:03.135Z,4.03
2018-06-11T12:04:31.462Z,3.70
2018-06-11T12:06:59.781Z,3.90
2018-06-11T12:09:28.113Z,3.57
2018-06-11T12:11:56.430Z,3.17
2018-06-11T12:14:24.749Z,3.30
2018-06-11T12:16:53.069Z,3.50
2018-06-11T12:19:21.370Z,3.13
2018-06-11T12:21:49.697Z,3.40
2018-06-11T12:24:18.009Z,3.37
2018-06-11T12:26:46.305Z,3.40
2018-06-11T12:29:14.605Z,3.40
2018-06-11T12:31:42.937Z,3.00
2018-06-11T12:34:11.259Z,3.27
2018-06-11T12:36:39.599Z,3.20
2018-06-11T12:39:08.474Z,3.17
2018-06-11T12:41:36.833Z,3.83
2018-06-11T12:44:05.139Z,3.33
2018-06-11T12:46:33.506Z,3.37
2018-06-11T12:49:01.941Z,3.50
2018-06-11T12:51:30.286Z,3.17
2018-06-11T12:53:58.591Z,3.40
2018-06-11T12:56:26.929Z,3.90
2018-06-11T12:58:55.242Z,3.57
2018-06-11T13:01:23.605Z,3.23
2018-06-11T13:03:51.921Z,3.20
2018-06-11T13:06:20.213Z,3.10
2018-06-11T13:08:48.552Z,2.70
2018-06-11T13:11:16.920Z,3.40
2018-06-11T13:13:45.271Z,3.00
2018-06-11T13:16:13.642Z,3.07
2018-06-11T13:18:41.989Z,3.60
2018-06-11T13:21:10.300Z,3.13
2018-06-11T13:23:39.305Z,3.43
2018-06-11T13:26:07.685Z,3.07
2018-06-11T13:28:35.993Z,3.60
2018-06-11T13:31:04.517Z,3.67
2018-06-11T13:33:32.833Z,3.40
2018-06-11T13:36:01.150Z,3.40
2018-06-11T13:38:29.480Z,3.27
2018-06-11T13:40:57.833Z,2.87
2018-06-11T13:43:26.154Z,3.13
2018-06-11T13:45:54.583Z,2.90
2018-06-11T13:48:22.931Z,2.77
2018-06-11T13:50:51.274Z,3.27
2018-06-11T13:53:19.341Z,2.83
2018-06-11T13:55:47.415Z,3.20
2018-06-11T13:58:15.789Z,3.60
2018-06-11T14:00:44.143Z,2.97
2018-06-11T14:03:12.475Z,3.30
2018-06-11T14:05:40.880Z,3.53
2018-06-11T14:08:09.162Z,4.00
2018-06-11T14:10:37.491Z,3.70
2018-06-11T14:13:05.545Z,3.57
2018-06-11T14:15:33.882Z,3.83
2018-06-11T14:18:02.227Z,3.70
2018-06-11T14:20:30.573Z,3.60
2018-06-11T14:22:58.897Z,3.03
2018-06-11T14:25:27.196Z,3.20
2018-06-11T14:27:55.541Z,3.57
2018-06-11T14:30:24.050Z,3.50
2018-06-11T14:32:52.373Z,2.83
2018-06-11T14:35:20.419Z,3.30
2018-06-11T14:37:48.742Z,3.87
2018-06-11T14:40:17.091Z,3.80
2018-06-11T14:42:45.402Z,4.13
2018-06-11T14:45:13.754Z,3.40
2018-06-11T14:47:41.816Z,3.17
2018-06-11T14:50:10.142Z,3.80
2018-06-11T14:52:38.495Z,3.73
2018-06-11T14:55:06.866Z,3.27
2018-06-11T14:57:35.181Z,3.70
2018-06-11T15:00:03.834Z,4.10
2018-06-11T15:02:32.165Z,3.60
2018-06-11T15:06:29.705Z,3.33
2018-06-11T15:08:58.054Z,3.83
2018-06-11T15:11:26.364Z,4.40
2018-06-11T15:13:54.722Z,3.30
2018-06-11T15:16:23.056Z,3.20
2018-06-11T15:18:51.352Z,3.50
2018-06-11T15:21:19.732Z,3.80
2018-06-11T15:23:48.043Z,4.00
2018-06-11T15:26:16.378Z,4.20
2018-06-11T15:28:44.709Z,3.80
2018-06-11T15:31:13.062Z,3.70
2018-06-11T15:33:41.394Z,4.27
2018-06-11T15:36:09.738Z,3.70
2018-06-11T15:38:38.064Z,3.90
2018-06-11T15:41:06.378Z,3.70
2018-06-11T15:43:34.701Z,4.17
2018-06-11T15:46:03.058Z,4.67
2018-06-11T15:48:31.376Z,4.30
2018-06-11T15:50:59.684Z,5.00
2018-06-11T15:53:28.000Z,4.20
2018-06-11T15:55:56.310Z,4.00
2018-06-11T15:58:24.629Z,4.13
2018-06-11T16:00:52.961Z,4.07
2018-06-11T16:03:21.397Z,4.00
2018-06-11T16:05:49.775Z,4.07
2018-06-11T16:08:18.171Z,4.40
2018-06-11T16:10:46.506Z,4.17
2018-06-11T16:13:14.841Z,4.03
2018-06-11T16:15:43.188Z,3.70
2018-06-11T16:18:11.534Z,4.57
2018-06-11T16:20:39.847Z,3.50
2018-06-11T16:23:08.201Z,3.80
2018-06-11T16:25:36.534Z,4.53
2018-06-11T16:28:04.655Z,4.03
2018-06-11T16:30:32.994Z,3.97
2018-06-11T16:33:01.335Z,4.67
2018-06-11T16:35:29.672Z,4.60
2018-06-11T16:37:57.997Z,4.20
2018-06-11T16:40:26.391Z,4.50
2018-06-11T16:42:54.770Z,4.13
2018-06-11T16:45:23.090Z,4.10
2018-06-11T16:47:51.529Z,4.13
2018-06-11T16:50:19.840Z,4.10
2018-06-11T16:52:48.263Z,3.90
2018-06-11T16:55:16.680Z,4.60
2018-06-11T16:57:45.012Z,4.00
2018-06-11T17:00:13.337Z,3.87
2018-06-11T17:02:41.652Z,4.50
2018-06-11T17:05:09.972Z,4.10
2018-06-11T17:07:38.312Z,4.10
2018-06-11T17:10:06.626Z,4.07
2018-06-11T17:12:34.940Z,4.10
2018-06-11T17:15:03.252Z,3.83
2018-06-11T17:17:31.642Z,4.27
2018-06-11T17:19:59.935Z,3.60
2018-06-11T17:22:28.302Z,3.93
2018-06-11T17:24:56.639Z,3.73
2018-06-11T17:27:25.022Z,3.40
2018-06-11T17:29:53.379Z,4.10
2018-06-11T17:32:21.724Z,3.73
2018-06-11T17:34:50.092Z,3.50
2018-06-11T17:37:18.484Z,4.00
2018-06-11T17:39:46.823Z,3.57
2018-06-11T17:42:15.169Z,3.53
2018-06-11T17:44:44.930Z,3.53
2018-06-11T17:47:13.408Z,4.33
2018-06-11T17:49:41.782Z,4.47
2018-06-11T17:52:10.112Z,3.40
2018-06-11T17:54:38.592Z,3.70
2018-06-11T17:57:06.872Z,3.70
2018-06-11T17:59:35.314Z,3.80
2018-06-11T18:02:03.646Z,3.23
2018-06-11T18:04:32.010Z,3.90
2018-06-11T18:07:00.353Z,4.10
2018-06-11T18:09:28.761Z,4.17
2018-06-11T18:11:57.114Z,4.17
2018-06-11T18:14:25.477Z,4.10
2018-06-11T18:16:53.859Z,5.70
2018-06-11T18:19:22.185Z,5.53
2018-06-11T18:21:50.551Z,4.70
2018-06-11T18:24:18.911Z,4.30
2018-06-11T18:26:47.298Z,4.57
2018-06-11T18:29:15.747Z,4.10
2018-06-11T18:31:44.083Z,4.20
2018-06-11T18:34:12.425Z,4.10
2018-06-11T18:36:40.799Z,4.47
2018-06-11T18:39:09.263Z,4.33
2018-06-11T18:41:37.753Z,4.27
2018-06-11T18:44:06.120Z,3.80
2018-06-11T18:46:34.471Z,3.70
2018-06-11T18:49:02.863Z,4.30
2018-06-11T18:51:31.158Z,4.53
2018-06-11T18:53:59.236Z,4.23
2018-06-11T18:56:27.301Z,4.17
2018-06-11T18:58:55.349Z,4.30
2018-06-11T19:01:23.680Z,4.10
2018-06-11T19:03:52.020Z,3.90
2018-06-11T19:06:20.355Z,4.50
2018-06-11T19:08:48.709Z,4.17
2018-06-11T19:11:17.041Z,5.07
2018-06-11T19:13:45.484Z,4.53
2018-06-11T19:16:13.903Z,4.70
2018-06-11T19:18:42.337Z,5.00
2018-06-11T19:21:10.651Z,4.53
2018-06-11T19:23:39.028Z,4.60
2018-06-11T19:26:07.367Z,5.10
2018-06-11T19:28:35.884Z,4.70
2018-06-11T19:31:04.279Z,5.30
2018-06-11T19:33:32.612Z,4.93
2018-06-11T19:36:00.937Z,5.30
2018-06-11T19:38:29.391Z,5.30
2018-06-11T19:40:58.638Z,5.43
2018-06-11T19:46:01.569Z,5.20
2018-06-11T19:48:29.885Z,5.40
2018-06-11T19:50:58.248Z,5.23
2018-06-11T19:53:26.548Z,5.30
2018-06-11T19:55:54.883Z,5.63
2018-06-11T19:58:23.221Z,4.97
2018-06-11T20:00:51.561Z,5.30
2018-06-11T20:03:19.904Z,5.67
2018-06-11T20:05:48.225Z,4.97
2018-06-11T20:08:16.628Z,5.13
2018-06-11T20:10:45.006Z,5.23
2018-06-11T20:13:13.330Z,5.00
2018-06-11T20:15:41.700Z,5.00
2018-06-11T20:18:10.040Z,4.70
2018-06-11T20:20:38.406Z,4.90
2018-06-11T20:23:06.710Z,5.20
2018-06-11T20:25:35.066Z,5.13
2018-06-11T20:28:03.408Z,5.03
2018-06-11T20:30:31.752Z,4.77
2018-06-11T20:33:00.072Z,4.73
2018-06-11T20:35:28.373Z,4.60
2018-06-11T20:37:56.744Z,5.23
2018-06-11T20:40:25.784Z,4.40
2018-06-11T20:42:54.096Z,5.00
2018-06-11T20:45:22.448Z,4.17
2018-06-11T20:47:50.756Z,4.70
2018-06-11T20:50:19.143Z,4.10
2018-06-11T20:52:47.458Z,4.20
2018-06-11T20:55:15.828Z,3.83
2018-06-11T20:57:44.873Z,3.73
2018-06-11T21:00:13.224Z,3.30
2018-06-11T21:02:41.556Z,3.63
2018-06-11T21:05:09.870Z,4.00
2018-06-11T21:07:38.168Z,3.50
2018-06-11T21:10:06.524Z,3.20
2018-06-11T21:12:34.824Z,3.60
2018-06-11T21:15:03.158Z,3.60
2018-06-11T21:17:31.476Z,3.60
2018-06-11T21:19:59.871Z,3.20
2018-06-11T21:22:28.186Z,2.93
2018-06-11T21:24:56.890Z,3.57
2018-06-11T21:27:25.728Z,3.03
2018-06-11T21:29:54.074Z,2.90
2018-06-11T21:32:22.374Z,3.93
2018-06-11T21:34:50.806Z,3.03
2018-06-11T21:37:19.122Z,2.80
2018-06-11T21:39:47.454Z,3.20
2018-06-11T21:42:15.754Z,3.37
2018-06-11T21:44:44.191Z,3.23
2018-06-11T21:47:12.567Z,3.07
2018-06-11T21:49:40.844Z,3.40
2018-06-11T21:52:09.262Z,2.77
2018-06-11T21:54:37.598Z,2.70
2018-06-11T21:57:05.973Z,2.50
2018-06-11T21:59:34.293Z,2.67
2018-06-11T22:02:02.622Z,2.63
2018-06-11T22:04:30.926Z,2.50
2018-06-11T22:06:59.281Z,3.00
2018-06-11T22:09:27.583Z,2.80
2018-06-11T22:11:55.925Z,2.83
2018-06-11T22:14:24.245Z,2.50
2018-06-11T22:16:52.702Z,2.70
2018-06-11T22:19:20.771Z,3.20
2018-06-11T22:21:49.169Z,2.90
2018-06-11T22:24:17.589Z,3.00
2018-06-11T22:26:45.909Z,3.43
2018-06-11T22:29:14.231Z,3.50
2018-06-11T22:31:42.542Z,3.23
2018-06-11T22:34:10.931Z,3.10
2018-06-11T22:36:39.308Z,3.97
2018-06-11T22:39:08.513Z,3.17
2018-06-11T22:41:36.824Z,3.30
2018-06-11T22:44:05.186Z,3.50
2018-06-11T22:46:33.528Z,3.20
2018-06-11T22:49:01.858Z,3.60
2018-06-11T22:51:30.147Z,3.50
2018-06-11T22:53:58.458Z,3.53
2018-06-11T22:56:26.779Z,3.33
2018-06-11T22:58:55.081Z,3.23
2018-06-11T23:01:23.394Z,3.53
2018-06-11T23:03:51.686Z,3.10
2018-06-11T23:06:19.991Z,2.83
2018-06-11T23:08:48.315Z,2.90
2018-06-11T23:11:16.665Z,3.10
2018-06-11T23:13:44.977Z,2.80
2018-06-11T23:16:13.314Z,2.70
2018-06-11T23:18:41.655Z,3.00
2018-06-11T23:21:09.973Z,2.63
2018-06-11T23:23:38.286Z,2.97
2018-06-11T23:26:06.579Z,3.13
2018-06-11T23:28:34.859Z,3.00
2018-06-11T23:31:03.181Z,2.90
2018-06-11T23:33:31.509Z,3.17
2018-06-11T23:35:59.825Z,2.50
2018-06-11T23:38:28.103Z,2.90
2018-06-11T23:40:56.421Z,3.23
2018-06-11T23:43:24.755Z,2.60
2018-06-11T23:45:53.081Z,3.70
2018-06-11T23:48:21.375Z,2.90
2018-06-11T23:50:49.679Z,3.10
2018-06-11T23:53:17.997Z,3.00
2018-06-11T23:55:46.304Z,3.20
2018-06-11T23:58:14.587Z,3.00
